Time;durP1;ratioP1;P1;durP2;ratioP2;P2;SDS_P1;SDS_P2;PMS_P1;PMS_P2;Temp;Humidity;BMP_temperature;BMP_pressure;BME280_temperature;BME280_humidity;BME280_pressure;Samples;Min_cycle;Max_cycle;Signal;HPM_P1;HPM_P2
2023/02/03 00:01:22;;;;;;;1.73;0.60;;;5.10;99.90;;;;;;4977104;28;20168;-81
2023/02/03 00:03:48;;;;;;;1.83;0.80;;;5.10;99.90;;;;;;4976481;28;20174;-83
2023/02/03 00:06:13;;;;;;;3.10;0.40;;;5.10;99.90;;;;;;4976135;28;20807;-86
2023/02/03 00:08:39;;;;;;;1.10;0.43;;;5.20;99.90;;;;;;4976731;28;20176;-81
2023/02/03 00:11:05;;;;;;;1.40;0.67;;;5.20;99.90;;;;;;4976470;28;20258;-83
2023/02/03 00:13:31;;;;;;;1.60;0.53;;;5.30;99.90;;;;;;4975662;28;20519;-78
2023/02/03 00:15:57;;;;;;;1.27;0.50;;;5.30;99.90;;;;;;4991294;28;20791;-78
2023/02/03 00:18:22;;;;;;;0.83;0.43;;;5.30;99.90;;;;;;4968336;28;20622;-77
2023/02/03 00:20:48;;;;;;;0.87;0.40;;;5.40;99.90;;;;;;4976115;28;20174;-82
2023/02/03 00:23:13;;;;;;;1.07;0.30;;;5.40;99.90;;;;;;4976061;28;20246;-78
2023/02/03 00:25:39;;;;;;;2.40;0.70;;;5.50;99.90;;;;;;4975906;28;20756;-84
2023/02/03 00:28:05;;;;;;;2.80;0.80;;;5.60;99.90;;;;;;4976235;28;20180;-79
2023/02/03 00:30:33;;;;;;;3.37;0.87;;;5.60;99.90;;;;;;4975799;28;20264;-84
2023/02/03 00:33:00;;;;;;;3.33;1.50;;;5.70;99.90;;;;;;4958947;28;20488;-87
2023/02/03 00:35:25;;;;;;;2.67;1.00;;;5.70;99.90;;;;;;4976146;28;20422;-85
2023/02/03 00:37:52;;;;;;;3.33;1.57;;;5.80;99.90;;;;;;4975596;28;20573;-85
2023/02/03 00:40:19;;;;;;;3.47;1.67;;;5.80;99.90;;;;;;4975883;28;20209;-86
2023/02/03 00:42:44;;;;;;;4.30;2.00;;;5.80;99.90;;;;;;4975267;28;20955;-84
2023/02/03 00:45:10;;;;;;;5.50;3.40;;;5.90;99.90;;;;;;4975954;28;20502;-85
2023/02/03 00:47:35;;;;;;;3.90;2.30;;;5.90;99.90;;;;;;4973787;28;20591;-85
2023/02/03 00:50:00;;;;;;;5.33;2.20;;;5.90;99.90;;;;;;4935382;28;20189;-78
2023/02/03 00:52:26;;;;;;;5.20;3.10;;;6.00;99.90;;;;;;4957984;28;20301;-80
2023/02/03 00:54:51;;;;;;;4.93;2.97;;;6.00;99.90;;;;;;4958960;28;20187;-88
2023/02/03 00:57:17;;;;;;;4.43;3.17;;;6.10;99.90;;;;;;4958582;28;20202;-88
2023/02/03 00:59:42;;;;;;;6.03;3.33;;;6.20;99.90;;;;;;4976220;28;20185;-88
2023/02/03 01:02:08;;;;;;;5.30;3.00;;;6.40;99.90;;;;;;4976191;28;20223;-91
2023/02/03 01:04:33;;;;;;;6.27;3.13;;;6.50;99.90;;;;;;4959044;28;20185;-88
2023/02/03 01:06:59;;;;;;;3.03;2.10;;;6.60;99.90;;;;;;4975274;28;20530;-90
2023/02/03 01:09:25;;;;;;;5.80;2.40;;;6.80;99.90;;;;;;4976123;28;20207;-86
2023/02/03 01:11:50;;;;;;;10.97;3.57;;;6.90;99.90;;;;;;4975698;28;20592;-90
2023/02/03 01:14:16;;;;;;;17.50;4.83;;;7.00;99.90;;;;;;4975364;28;20434;-82
2023/02/03 01:16:44;;;;;;;9.60;4.00;;;7.00;99.90;;;;;;4991009;28;20205;-88
2023/02/03 01:19:10;;;;;;;6.83;3.23;;;7.10;99.90;;;;;;4976292;28;20221;-87
2023/02/03 01:21:35;;;;;;;6.03;3.93;;;7.20;99.90;;;;;;4980694;28;20456;-79
2023/02/03 01:24:01;;;;;;;5.87;4.30;;;7.20;99.90;;;;;;4996042;28;20173;-83
2023/02/03 01:26:27;;;;;;;11.13;3.73;;;7.30;99.90;;;;;;4999410;28;20169;-87
2023/02/03 01:28:57;;;;;;;6.70;4.23;;;7.30;99.90;;;;;;4997885;28;20185;-87
2023/02/03 01:31:35;;;;;;;12.30;5.10;;;7.30;99.90;;;;;;4995166;28;20420;-89
2023/02/03 01:34:02;;;;;;;11.13;4.93;;;7.30;99.90;;;;;;4994153;28;20425;-80
2023/02/03 01:36:29;;;;;;;8.47;4.27;;;7.40;99.90;;;;;;4977498;28;20504;-89
2023/02/03 01:38:55;;;;;;;7.80;4.27;;;7.50;99.90;;;;;;4993634;28;20475;-88
2023/02/03 01:41:26;;;;;;;13.10;5.60;;;7.50;99.90;;;;;;4993754;28;20429;-87
2023/02/03 01:43:54;;;;;;;13.03;3.97;;;7.50;99.90;;;;;;4977907;28;20175;-90
2023/02/03 01:46:40;;;;;;;8.77;3.53;;;7.60;99.90;;;;;;4993788;28;20426;-89
2023/02/03 01:49:13;;;;;;;6.77;4.63;;;7.60;99.90;;;;;;4994574;28;20429;-90
2023/02/03 01:51:40;;;;;;;8.10;4.40;;;7.60;99.90;;;;;;4994591;28;20419;-88
2023/02/03 01:54:13;;;;;;;7.77;4.20;;;7.60;99.90;;;;;;4993546;28;20453;-85
2023/02/03 01:56:44;;;;;;;14.30;4.40;;;7.60;99.90;;;;;;4991753;28;20415;-82
2023/02/03 01:59:13;;;;;;;10.20;5.40;;;7.60;99.90;;;;;;4923036;28;20475;-87
2023/02/03 02:01:39;;;;;;;8.60;5.03;;;7.60;99.90;;;;;;4953968;28;20410;-80
2023/02/03 02:04:05;;;;;;;8.17;4.90;;;7.60;99.90;;;;;;4954670;29;20443;-85
2023/02/03 02:06:30;;;;;;;12.83;4.57;;;7.60;99.90;;;;;;4954174;28;20184;-87
2023/02/03 02:08:59;;;;;;;9.83;5.00;;;7.70;99.90;;;;;;4957321;28;20913;-85
2023/02/03 02:11:25;;;;;;;12.27;5.37;;;7.70;99.90;;;;;;4956324;28;20282;-90
2023/02/03 02:13:53;;;;;;;7.13;5.30;;;7.70;99.90;;;;;;4955256;28;20508;-92
2023/02/03 02:16:48;;;;;;;8.70;4.17;;;7.70;99.90;;;;;;4955236;28;20470;-91
2023/02/03 02:19:32;;;;;;;8.70;5.00;;;7.70;99.90;;;;;;4955946;29;20485;-93
2023/02/03 02:22:17;;;;;;;8.13;4.70;;;7.70;99.90;;;;;;4955201;28;20471;-94
2023/02/03 02:25:23;;;;;;;7.90;5.30;;;7.70;99.90;;;;;;4955967;28;20427;-91
2023/02/03 02:28:36;;;;;;;8.50;3.83;;;7.70;99.90;;;;;;4955896;28;20453;-92
2023/02/03 02:31:58;;;;;;;14.57;4.67;;;7.70;99.90;;;;;;4924220;29;20430;-92
2023/02/03 02:34:41;;;;;;;8.30;4.33;;;7.70;99.90;;;;;;4938798;29;20443;-95
2023/02/03 02:37:27;;;;;;;7.23;3.23;;;7.70;99.90;;;;;;4955740;29;20424;-90
2023/02/03 02:39:56;;;;;;;10.33;4.10;;;7.70;99.90;;;;;;4966769;28;20533;-91
2023/02/03 02:43:10;;;;;;;7.13;3.70;;;7.70;99.90;;;;;;4975162;28;20415;-91
2023/02/03 02:45:58;;;;;;;12.90;5.13;;;7.70;99.90;;;;;;4958887;28;20414;-95
2023/02/03 02:49:12;;;;;;;4.80;2.77;;;7.70;99.90;;;;;;4976389;28;20419;-94
2023/02/03 02:51:40;;;;;;;8.03;3.60;;;7.70;99.90;;;;;;4978455;28;20434;-96
2023/02/03 02:54:08;;;;;;;7.53;3.53;;;7.70;99.90;;;;;;4967168;28;20447;-95
2023/02/03 02:56:37;;;;;;;9.03;4.10;;;7.70;99.90;;;;;;4966521;28;20415;-85
2023/02/03 02:59:04;;;;;;;4.73;2.30;;;7.70;99.90;;;;;;4964471;28;20464;-92
2023/02/03 03:01:30;;;;;;;13.80;4.40;;;7.70;99.90;;;;;;4978440;28;20419;-92
2023/02/03 03:03:57;;;;;;;10.93;4.07;;;7.70;99.90;;;;;;4978643;28;20517;-90
2023/02/03 03:06:28;;;;;;;7.20;3.43;;;7.70;99.90;;;;;;4974941;28;20176;-90
2023/02/03 03:08:57;;;;;;;6.80;3.23;;;7.70;99.90;;;;;;4958297;28;20518;-91
2023/02/03 03:11:30;;;;;;;11.13;3.43;;;7.70;99.90;;;;;;4974457;28;20419;-91
2023/02/03 03:13:56;;;;;;;5.57;1.63;;;7.70;99.90;;;;;;4958196;28;20450;-93
2023/02/03 03:16:31;;;;;;;8.47;3.07;;;7.70;99.90;;;;;;4975503;28;20415;-94
2023/02/03 03:19:05;;;;;;;6.87;2.63;;;7.70;99.90;;;;;;4977060;28;20211;-92
2023/02/03 03:21:36;;;;;;;5.17;2.43;;;7.70;99.90;;;;;;4980195;28;20458;-92
2023/02/03 03:24:09;;;;;;;11.73;2.90;;;7.80;99.90;;;;;;4979045;28;20430;-94
2023/02/03 03:26:52;;;;;;;5.57;2.93;;;7.80;99.90;;;;;;4980546;28;20846;-92
2023/02/03 03:29:21;;;;;;;6.13;3.20;;;7.80;99.90;;;;;;4961291;28;20465;-90
2023/02/03 03:31:47;;;;;;;6.20;2.60;;;7.80;99.90;;;;;;4960954;28;20460;-89
2023/02/03 03:34:13;;;;;;;7.63;2.83;;;7.80;99.90;;;;;;4961123;28;20442;-91
2023/02/03 03:37:05;;;;;;;6.03;2.63;;;7.80;99.90;;;;;;4977830;28;20472;-88
2023/02/03 03:39:58;;;;;;;5.23;2.00;;;7.80;99.90;;;;;;4976983;28;21027;-91
2023/02/03 03:42:33;;;;;;;7.80;1.53;;;7.90;99.90;;;;;;4925767;28;21202;-86
2023/02/03 03:45:06;;;;;;;5.27;1.40;;;7.90;99.90;;;;;;4993991;28;20421;-91
2023/02/03 03:47:49;;;;;;;7.57;2.67;;;7.90;99.90;;;;;;4978209;28;20952;-88
2023/02/03 03:50:20;;;;;;;5.67;1.83;;;7.90;99.90;;;;;;4973978;28;20412;-89
2023/02/03 03:52:48;;;;;;;3.30;1.57;;;8.00;99.90;;;;;;4977224;28;20883;-94
2023/02/03 03:55:17;;;;;;;6.60;1.80;;;8.00;99.90;;;;;;4977867;28;20447;-93
2023/02/03 03:58:21;;;;;;;5.33;2.20;;;8.00;99.90;;;;;;4976700;28;20465;-91
2023/02/03 04:00:48;;;;;;;5.50;2.07;;;7.90;99.90;;;;;;4919053;29;20421;-92
2023/02/03 04:03:20;;;;;;;6.57;1.80;;;8.00;99.90;;;;;;4967498;28;20428;-88
2023/02/03 04:05:45;;;;;;;8.03;2.30;;;8.00;99.90;;;;;;4976213;28;20974;-88
2023/02/03 04:08:12;;;;;;;4.50;1.30;;;8.00;99.90;;;;;;4976571;28;20410;-88
2023/02/03 04:10:40;;;;;;;6.10;1.77;;;7.90;99.90;;;;;;4960403;28;20188;-90
2023/02/03 04:13:08;;;;;;;8.20;2.10;;;7.90;99.90;;;;;;4976777;28;21004;-91
2023/02/03 04:15:53;;;;;;;5.93;2.50;;;7.80;99.90;;;;;;4961242;28;20424;-92
2023/02/03 04:18:29;;;;;;;5.50;1.77;;;7.80;99.90;;;;;;4978374;28;20461;-91
2023/02/03 04:21:05;;;;;;;3.60;1.63;;;7.80;99.90;;;;;;4978816;28;20435;-89
2023/02/03 04:23:30;;;;;;;3.90;1.90;;;7.80;99.90;;;;;;4954360;28;20433;-87
2023/02/03 04:25:56;;;;;;;5.03;3.33;;;7.80;99.90;;;;;;4987323;28;20433;-92
2023/02/03 04:28:21;;;;;;;4.53;1.90;;;7.80;99.90;;;;;;4998085;28;20254;-95
2023/02/03 04:30:46;;;;;;;5.63;2.33;;;7.80;99.90;;;;;;4998367;28;20185;-90
2023/02/03 04:33:12;;;;;;;7.40;2.70;;;7.80;99.90;;;;;;4980765;28;20179;-92
2023/02/03 04:35:37;;;;;;;3.70;1.23;;;7.80;99.90;;;;;;4996775;28;20168;-94
2023/02/03 04:38:12;;;;;;;4.00;1.10;;;7.80;99.90;;;;;;4999829;28;20199;-92
2023/02/03 04:40:37;;;;;;;2.40;0.83;;;7.80;99.90;;;;;;4999763;28;20175;-93
2023/02/03 04:43:06;;;;;;;4.57;2.00;;;7.70;99.90;;;;;;4980006;28;20438;-91
2023/02/03 04:45:32;;;;;;;3.60;1.07;;;7.70;99.90;;;;;;4996312;28;20251;-89
2023/02/03 04:47:57;;;;;;;2.53;1.00;;;7.70;99.90;;;;;;4978943;28;20943;-90
2023/02/03 04:50:23;;;;;;;3.10;1.60;;;7.70;99.90;;;;;;4995684;28;20200;-87
2023/02/03 04:52:48;;;;;;;3.30;1.13;;;7.60;99.90;;;;;;4978995;28;20183;-88
2023/02/03 04:55:15;;;;;;;3.20;0.80;;;7.70;99.90;;;;;;4996322;28;20259;-87
2023/02/03 04:58:09;;;;;;;2.80;1.47;;;7.70;99.90;;;;;;4981599;28;20477;-90
2023/02/03 05:00:40;;;;;;;5.20;1.80;;;7.70;99.90;;;;;;4964198;28;20850;-91
2023/02/03 05:03:09;;;;;;;10.10;1.90;;;7.70;99.90;;;;;;4966526;28;20455;-95
2023/02/03 05:05:38;;;;;;;8.63;2.10;;;7.70;99.90;;;;;;4999992;28;20411;-93
2023/02/03 05:08:25;;;;;;;3.13;1.53;;;7.70;99.90;;;;;;4951583;28;20965;-95
2023/02/03 05:11:03;;;;;;;3.70;1.53;;;7.70;99.90;;;;;;4992784;28;20461;-93
2023/02/03 05:14:24;;;;;;;3.53;1.90;;;7.80;99.90;;;;;;4973408;28;20421;-86
2023/02/03 05:16:49;;;;;;;4.23;1.90;;;7.80;99.90;;;;;;4982498;28;20418;-91
2023/02/03 05:19:15;;;;;;;4.90;1.90;;;7.80;99.90;;;;;;4980772;28;20871;-92
2023/02/03 05:21:40;;;;;;;8.10;1.93;;;7.80;99.90;;;;;;4983580;28;20218;-92
2023/02/03 05:24:06;;;;;;;6.80;2.13;;;7.70;99.90;;;;;;4996184;28;20176;-86
2023/02/03 05:26:33;;;;;;;11.50;2.80;;;7.70;99.90;;;;;;4996008;28;20168;-83
2023/02/03 05:28:58;;;;;;;5.40;2.13;;;7.70;99.90;;;;;;4995569;28;20430;-90
2023/02/03 05:31:24;;;;;;;4.70;1.60;;;7.70;99.90;;;;;;4997459;28;20425;-93
2023/02/03 05:33:52;;;;;;;5.73;2.13;;;7.70;99.90;;;;;;4980765;28;20223;-94
2023/02/03 05:37:00;;;;;;;7.03;3.47;;;7.70;99.90;;;;;;4979982;28;20202;-93
2023/02/03 05:39:46;;;;;;;5.63;1.90;;;7.80;99.90;;;;;;5000578;28;21001;-92
2023/02/03 05:42:13;;;;;;;5.53;2.53;;;7.80;99.90;;;;;;4980469;28;20425;-92
2023/02/03 05:44:47;;;;;;;5.97;1.60;;;7.80;99.90;;;;;;4948175;28;20183;-94
2023/02/03 05:47:43;;;;;;;3.80;2.47;;;7.70;99.90;;;;;;4988831;28;20403;-92
2023/02/03 05:50:09;;;;;;;9.73;2.53;;;7.80;99.90;;;;;;4986486;28;20446;-93
2023/02/03 05:52:42;;;;;;;3.80;1.23;;;7.80;99.90;;;;;;4992870;28;20460;-84
2023/02/03 05:55:10;;;;;;;8.77;1.20;;;7.80;99.90;;;;;;4956008;28;20783;-94
2023/02/03 05:57:36;;;;;;;6.60;1.70;;;7.80;99.90;;;;;;5002008;28;20961;-94
2023/02/03 06:00:02;;;;;;;9.53;1.83;;;7.70;99.90;;;;;;4983216;28;20435;-86
2023/02/03 06:02:27;;;;;;;7.83;1.50;;;7.80;99.90;;;;;;4998830;28;20175;-89
2023/02/03 06:04:52;;;;;;;3.63;0.90;;;7.80;99.90;;;;;;4979925;28;20179;-88
2023/02/03 06:07:21;;;;;;;3.60;1.30;;;7.80;99.90;;;;;;4979941;28;20178;-92
2023/02/03 06:09:47;;;;;;;4.00;1.80;;;7.80;99.90;;;;;;4977690;28;20191;-91
2023/02/03 06:12:14;;;;;;;2.90;1.60;;;7.80;99.90;;;;;;4996448;28;20413;-86
2023/02/03 06:14:40;;;;;;;3.67;1.53;;;7.70;99.90;;;;;;4939862;28;20785;-87
2023/02/03 06:17:06;;;;;;;3.07;1.30;;;7.70;99.90;;;;;;4979040;28;20473;-84
2023/02/03 06:19:39;;;;;;;2.87;1.43;;;7.80;99.90;;;;;;4982606;28;20936;-90
2023/02/03 06:22:07;;;;;;;5.93;1.70;;;7.80;99.90;;;;;;4989142;28;20466;-93
2023/02/03 06:24:33;;;;;;;7.77;2.63;;;7.80;99.90;;;;;;4997125;28;20433;-87
2023/02/03 06:26:58;;;;;;;3.83;1.07;;;7.70;99.90;;;;;;4989551;28;20424;-91
2023/02/03 06:29:24;;;;;;;3.90;1.13;;;7.70;99.90;;;;;;4980687;28;20270;-94
2023/02/03 06:31:49;;;;;;;7.47;1.80;;;7.70;99.90;;;;;;4981253;28;20241;-94
2023/02/03 06:34:15;;;;;;;4.33;1.30;;;7.70;99.90;;;;;;4966188;28;20175;-87
2023/02/03 06:36:40;;;;;;;5.33;1.00;;;7.70;99.90;;;;;;4986481;28;20185;-93
2023/02/03 06:39:06;;;;;;;3.43;0.83;;;7.70;99.90;;;;;;4965296;28;20202;-95
2023/02/03 06:41:31;;;;;;;8.33;0.73;;;7.70;99.90;;;;;;4982418;28;20237;-93
2023/02/03 06:43:57;;;;;;;3.27;1.23;;;7.70;99.90;;;;;;4965559;28;20168;-95
2023/02/03 06:46:27;;;;;;;5.83;0.90;;;7.70;99.90;;;;;;4981607;28;20529;-93
2023/02/03 06:48:55;;;;;;;5.43;1.33;;;7.70;99.90;;;;;;4980180;28;20215;-93
2023/02/03 06:51:23;;;;;;;3.67;0.97;;;7.80;99.90;;;;;;4974793;28;20470;-92
2023/02/03 06:53:49;;;;;;;5.40;1.20;;;7.80;99.90;;;;;;4977524;28;20407;-86
2023/02/03 06:56:14;;;;;;;6.00;1.13;;;7.80;99.90;;;;;;4979525;28;20946;-83
2023/02/03 06:58:40;;;;;;;1.80;0.70;;;7.80;99.90;;;;;;4980513;28;20213;-87
2023/02/03 07:01:06;;;;;;;2.77;0.93;;;7.90;99.90;;;;;;4983290;28;20182;-93
2023/02/03 07:03:32;;;;;;;2.80;0.53;;;7.90;99.90;;;;;;5002201;28;20225;-89
2023/02/03 07:05:57;;;;;;;4.77;0.70;;;7.90;99.90;;;;;;5003468;28;20420;-93
2023/02/03 07:08:24;;;;;;;5.27;1.97;;;7.90;99.90;;;;;;5005685;28;20284;-90
2023/02/03 07:10:56;;;;;;;6.90;2.37;;;8.00;99.90;;;;;;4989971;28;20542;-90
2023/02/03 07:13:24;;;;;;;6.93;1.10;;;8.00;99.90;;;;;;5007000;28;20421;-90
2023/02/03 07:15:51;;;;;;;11.83;2.53;;;8.00;99.90;;;;;;4982238;28;21053;-84
2023/02/03 07:18:18;;;;;;;5.60;1.60;;;8.00;99.90;;;;;;4989768;28;20533;-94
2023/02/03 07:20:44;;;;;;;7.90;1.13;;;8.00;99.90;;;;;;5008382;28;20907;-84
2023/02/03 07:23:10;;;;;;;11.30;1.53;;;8.00;99.90;;;;;;5000914;28;20502;-93
2023/02/03 07:25:35;;;;;;;7.53;2.10;;;8.00;99.90;;;;;;4987051;28;20415;-94
2023/02/03 07:28:01;;;;;;;6.90;1.30;;;8.10;99.90;;;;;;4983359;28;20260;-93
2023/02/03 07:30:27;;;;;;;8.27;1.70;;;;;;;;;;4986275;28;20183;-93
2023/02/03 07:32:53;;;;;;;8.17;1.93;;;;;;;;;;4981701;28;20251;-91
2023/02/03 07:35:19;;;;;;;6.53;1.77;;;;;;;;;;4996771;28;20423;-89
2023/02/03 07:37:45;;;;;;;4.60;1.60;;;;;;;;;;4995362;28;20506;-93
2023/02/03 07:40:12;;;;;;;4.50;1.20;;;8.20;99.90;;;;;;4995756;28;20418;-91
2023/02/03 07:42:41;;;;;;;4.30;1.03;;;8.10;99.90;;;;;;4994683;28;20442;-94
2023/02/03 07:45:08;;;;;;;8.00;2.00;;;8.10;99.90;;;;;;4994965;28;20427;-92
2023/02/03 07:47:33;;;;;;;12.10;2.63;;;8.10;99.90;;;;;;4996918;28;20466;-94
2023/02/03 07:49:59;;;;;;;7.63;1.27;;;8.10;99.90;;;;;;4998426;28;20459;-88
2023/02/03 07:52:24;;;;;;;7.07;0.90;;;8.10;99.90;;;;;;4982177;28;20184;-89
2023/02/03 07:54:53;;;;;;;7.33;1.10;;;8.10;99.90;;;;;;4980150;28;20201;-92
2023/02/03 07:57:18;;;;;;;4.67;1.17;;;8.10;99.90;;;;;;4996627;28;20275;-93
2023/02/03 07:59:43;;;;;;;7.70;2.03;;;8.20;99.90;;;;;;4984370;28;20464;-92
2023/02/03 08:02:10;;;;;;;5.77;1.10;;;8.30;99.90;;;;;;5002066;28;20179;-91
2023/02/03 08:04:36;;;;;;;6.03;1.30;;;8.30;99.90;;;;;;5000304;28;20172;-94
2023/02/03 08:07:02;;;;;;;7.50;1.40;;;8.20;99.90;;;;;;5005472;28;20420;-92
2023/02/03 08:09:27;;;;;;;5.10;1.13;;;8.30;99.90;;;;;;5005571;28;20420;-92
2023/02/03 08:11:53;;;;;;;4.90;1.07;;;8.30;99.90;;;;;;4989583;28;20458;-92
2023/02/03 08:14:18;;;;;;;2.90;1.30;;;8.30;99.90;;;;;;5006155;28;20248;-91
2023/02/03 08:16:45;;;;;;;3.20;1.50;;;8.30;99.90;;;;;;5004410;28;20179;-85
2023/02/03 08:19:30;;;;;;;8.03;1.43;;;8.30;99.90;;;;;;4979046;28;20206;-90
2023/02/03 08:21:59;;;;;;;3.90;0.60;;;8.30;99.90;;;;;;5007296;28;20470;-95
2023/02/03 08:24:52;;;;;;;4.63;0.60;;;8.30;99.90;;;;;;4988737;28;20442;-93
2023/02/03 08:27:48;;;;;;;9.40;0.93;;;8.30;99.90;;;;;;4984116;28;20415;-92
2023/02/03 08:30:23;;;;;;;8.40;1.77;;;7.80;99.90;;;;;;4985932;28;20461;-87
2023/02/03 08:32:49;;;;;;;4.60;1.57;;;;;;;;;;4988006;28;20429;-95
2023/02/03 08:35:20;;;;;;;7.47;1.07;;;;;;;;;;4989032;28;20410;-94
2023/02/03 08:38:09;;;;;;;6.57;1.30;;;;;;;;;;4984155;28;20506;-91
2023/02/03 08:40:39;;;;;;;7.73;0.80;;;;;;;;;;4982039;28;20415;-93
2023/02/03 08:43:05;;;;;;;6.90;1.20;;;;;;;;;;4982361;28;20513;-93
2023/02/03 08:45:31;;;;;;;4.23;0.80;;;;;;;;;;4980848;28;20534;-94
2023/02/03 08:47:57;;;;;;;10.83;2.37;;;7.90;99.90;;;;;;4997700;28;20869;-86
2023/02/03 08:50:23;;;;;;;9.60;1.60;;;;;;;;;;4990139;28;20460;-92
2023/02/03 08:52:51;;;;;;;11.43;2.83;;;8.00;99.90;;;;;;4982909;28;20641;-92
2023/02/03 08:55:19;;;;;;;7.43;1.87;;;8.10;99.90;;;;;;4978546;28;20777;-93
2023/02/03 08:57:45;;;;;;;16.53;2.87;;;8.10;99.90;;;;;;4978274;28;20464;-94
2023/02/03 09:00:11;;;;;;;10.43;1.97;;;8.10;99.90;;;;;;4978654;28;20433;-92
2023/02/03 09:02:37;;;;;;;7.50;1.70;;;8.00;99.90;;;;;;4978137;28;20271;-91
2023/02/03 09:05:02;;;;;;;14.37;2.80;;;8.10;99.90;;;;;;4977976;28;20528;-89
2023/02/03 09:07:28;;;;;;;19.20;1.80;;;8.00;99.90;;;;;;4978182;28;20606;-89
2023/02/03 09:09:54;;;;;;;17.90;2.83;;;8.10;99.90;;;;;;4994827;28;20179;-93
2023/02/03 09:12:19;;;;;;;15.17;2.23;;;8.10;99.90;;;;;;4978614;28;20215;-91
2023/02/03 09:14:44;;;;;;;10.93;2.33;;;8.10;99.90;;;;;;4980742;28;20179;-87
2023/02/03 09:17:11;;;;;;;16.43;2.23;;;8.20;99.90;;;;;;4978743;28;20183;-94
2023/02/03 09:19:37;;;;;;;15.63;2.30;;;8.10;99.90;;;;;;4979461;28;20218;-93
2023/02/03 09:22:17;;;;;;;18.83;3.23;;;8.10;99.90;;;;;;4979183;28;20832;-93
2023/02/03 09:24:43;;;;;;;20.67;3.13;;;8.20;99.90;;;;;;4961492;28;20273;-91
2023/02/03 09:27:18;;;;;;;11.53;2.40;;;8.20;99.90;;;;;;4962708;28;20418;-90
2023/02/03 09:29:44;;;;;;;13.57;2.77;;;8.30;95.40;;;;;;4982897;28;20428;-91
2023/02/03 09:32:09;;;;;;;11.50;1.80;;;8.30;75.90;;;;;;4981922;28;20407;-95
2023/02/03 09:34:35;;;;;;;13.43;2.37;;;8.30;56.40;;;;;;4954816;28;21221;-85
2023/02/03 09:37:03;;;;;;;19.37;4.40;;;8.30;99.90;;;;;;4946206;28;20183;-87
2023/02/03 09:39:28;;;;;;;12.67;2.20;;;8.30;99.90;;;;;;4979586;28;20466;-92
2023/02/03 09:42:24;;;;;;;13.73;2.37;;;8.30;93.90;;;;;;4962063;28;20421;-91
2023/02/03 09:45:08;;;;;;;7.10;2.20;;;8.30;99.90;;;;;;4978478;28;20229;-89
2023/02/03 09:47:38;;;;;;;19.73;2.63;;;8.30;99.90;;;;;;4980361;28;20909;-96
2023/02/03 09:50:10;;;;;;;15.80;1.90;;;8.30;98.60;;;;;;4982910;28;20503;-94
2023/02/03 09:52:40;;;;;;;13.17;2.10;;;8.30;99.90;;;;;;4981759;28;20420;-95
2023/02/03 09:55:34;;;;;;;15.57;3.00;;;8.30;99.90;;;;;;4962736;28;20416;-93
2023/02/03 09:58:17;;;;;;;19.50;3.13;;;8.30;99.90;;;;;;4978815;28;20541;-93
2023/02/03 10:00:46;;;;;;;19.80;3.73;;;8.40;64.10;;;;;;4958361;28;20519;-88
2023/02/03 10:03:31;;;;;;;23.67;4.63;;;8.50;24.80;;;;;;4975664;28;20405;-84
2023/02/03 10:06:14;;;;;;;18.80;3.10;;;8.60;20.80;;;;;;4974283;28;20432;-89
2023/02/03 10:08:59;;;;;;;16.40;4.80;;;8.60;1.00;;;;;;4974400;28;20791;-88
2023/02/03 10:11:48;;;;;;;21.07;4.80;;;8.80;1.00;;;;;;4958360;28;20414;-87
2023/02/03 10:14:27;;;;;;;22.60;4.17;;;8.90;1.00;;;;;;4974736;28;20437;-84
2023/02/03 10:17:20;;;;;;;22.03;4.17;;;8.80;1.00;;;;;;4975372;28;20419;-88
2023/02/03 10:20:14;;;;;;;25.00;5.00;;;8.80;1.00;;;;;;4974850;28;20471;-87
2023/02/03 10:22:47;;;;;;;27.50;4.20;;;8.80;1.00;;;;;;4950822;28;20466;-88
2023/02/03 10:25:43;;;;;;;27.37;6.03;;;8.80;1.00;;;;;;4958228;28;20511;-90
2023/02/03 10:28:20;;;;;;;24.53;5.33;;;8.90;1.00;;;;;;4957954;28;20808;-87
2023/02/03 10:30:50;;;;;;;22.40;5.27;;;8.80;1.00;;;;;;4960879;28;20857;-89
2023/02/03 10:33:17;;;;;;;18.00;3.60;;;8.70;1.00;;;;;;4942015;28;20762;-88
2023/02/03 10:36:09;;;;;;;24.10;4.13;;;8.70;77.20;;;;;;4942904;28;20487;-88
2023/02/03 10:39:13;;;;;;;23.07;5.97;;;8.60;20.10;;;;;;4935860;28;20507;-87
2023/02/03 10:41:41;;;;;;;19.00;4.17;;;8.60;1.00;;;;;;4973884;28;20466;-88
2023/02/03 10:44:17;;;;;;;16.23;2.07;;;8.70;1.00;;;;;;4941837;28;20426;-90
2023/02/03 10:46:44;;;;;;;19.90;4.00;;;8.70;1.00;;;;;;4956206;28;20437;-89
2023/02/03 10:49:12;;;;;;;36.93;4.30;;;8.70;1.00;;;;;;4974363;28;20428;-87
2023/02/03 10:52:06;;;;;;;19.47;2.47;;;8.70;1.00;;;;;;4957379;28;20427;-89
2023/02/03 10:54:37;;;;;;;23.93;4.07;;;8.70;1.00;;;;;;4954941;28;20431;-88
2023/02/03 10:57:13;;;;;;;18.00;3.03;;;8.80;1.00;;;;;;4974856;28;20416;-86
2023/02/03 10:59:46;;;;;;;17.90;4.37;;;;;;;;;;4974551;28;20477;-88
2023/02/03 11:02:32;;;;;;;15.07;3.20;;;8.80;99.90;;;;;;4973519;28;20427;-87
2023/02/03 11:05:16;;;;;;;20.07;3.20;;;9.00;1.00;;;;;;4957406;28;20506;-87
2023/02/03 11:07:42;;;;;;;17.80;2.50;;;9.20;99.90;;;;;;4973397;28;20465;-86
2023/02/03 11:10:27;;;;;;;16.47;3.90;;;9.20;99.90;;;;;;4956975;28;20930;-88
2023/02/03 11:13:11;;;;;;;17.60;3.40;;;;;;;;;;4974548;28;20413;-87
2023/02/03 11:15:50;;;;;;;22.23;4.93;;;9.20;99.90;;;;;;4973578;28;20415;-87
2023/02/03 11:18:50;;;;;;;15.90;4.70;;;9.00;99.90;;;;;;4973470;28;20515;-87
2023/02/03 11:21:50;;;;;;;15.40;4.13;;;9.00;1.00;;;;;;4956668;28;20980;-90
2023/02/03 11:24:35;;;;;;;16.87;3.50;;;9.60;1.00;;;;;;4962746;28;20428;-89
2023/02/03 11:27:22;;;;;;;25.17;2.50;;;9.50;99.90;;;;;;4957385;28;20475;-87
2023/02/03 11:30:10;;;;;;;18.83;3.27;;;9.30;1.00;;;;;;4957307;28;20427;-88
2023/02/03 11:32:37;;;;;;;21.37;3.13;;;;;;;;;;4957126;28;20452;-88
2023/02/03 11:35:12;;;;;;;11.83;2.93;;;;;;;;;;4973020;28;20786;-87
2023/02/03 11:37:40;;;;;;;12.67;2.17;;;;;;;;;;4919107;28;20441;-86
2023/02/03 11:40:07;;;;;;;20.90;3.27;;;;;;;;;;4961144;28;20435;-89
2023/02/03 11:42:41;;;;;;;11.57;2.40;;;9.60;85.60;;;;;;4976592;28;20932;-89
2023/02/03 11:45:26;;;;;;;24.93;3.37;;;9.50;1.00;;;;;;4976814;28;20520;-84
2023/02/03 11:48:37;;;;;;;14.00;2.73;;;9.60;1.00;;;;;;4978677;28;20770;-83
2023/02/03 11:51:25;;;;;;;15.80;3.17;;;9.70;99.90;;;;;;4917002;29;20436;-87
2023/02/03 11:54:12;;;;;;;10.90;3.20;;;9.80;1.00;;;;;;4956799;28;20564;-84
2023/02/03 11:57:19;;;;;;;9.73;2.20;;;9.60;26.50;;;;;;4977446;28;20420;-90
2023/02/03 12:00:12;;;;;;;14.03;2.60;;;9.40;99.90;;;;;;4976589;28;20486;-87
2023/02/03 12:03:42;;;;;;;9.23;3.00;;;9.30;1.00;;;;;;4978172;28;20916;-87
2023/02/03 12:06:45;;;;;;;9.50;2.40;;;9.30;1.00;;;;;;4956973;28;20535;-89
2023/02/03 12:09:30;;;;;;;8.60;2.40;;;9.20;1.00;;;;;;4956966;28;20449;-87
2023/02/03 12:12:03;;;;;;;28.60;4.30;;;9.10;1.00;;;;;;4955853;28;20417;-88
2023/02/03 12:14:55;;;;;;;18.13;4.37;;;9.30;1.00;;;;;;4955875;28;20485;-88
2023/02/03 12:17:47;;;;;;;7.90;2.80;;;9.40;99.90;;;;;;4940545;29;20479;-85
2023/02/03 12:20:55;;;;;;;18.07;3.07;;;9.40;99.90;;;;;;4955818;28;20529;-86
2023/02/03 12:23:29;;;;;;;22.77;4.10;;;9.50;99.90;;;;;;4957714;28;20434;-87
2023/02/03 12:26:22;;;;;;;10.10;2.47;;;9.40;99.90;;;;;;4940194;29;20443;-88
2023/02/03 12:29:30;;;;;;;13.87;2.60;;;9.40;1.00;;;;;;4957506;29;20433;-89
2023/02/03 12:32:11;;;;;;;13.97;4.10;;;9.50;99.90;;;;;;4974937;28;20606;-84
2023/02/03 12:35:13;;;;;;;13.60;2.67;;;9.30;99.90;;;;;;4995323;28;20408;-85
2023/02/03 12:37:57;;;;;;;15.63;2.73;;;9.20;99.90;;;;;;4979011;28;20400;-86
2023/02/03 12:40:37;;;;;;;12.67;3.00;;;9.10;1.00;;;;;;4984781;28;20459;-85
2023/02/03 12:43:38;;;;;;;12.90;3.37;;;9.00;1.00;;;;;;4976694;28;20470;-88
2023/02/03 12:46:26;;;;;;;11.53;2.20;;;8.90;99.90;;;;;;4992274;28;20925;-87
2023/02/03 12:49:14;;;;;;;16.43;3.60;;;8.90;89.00;;;;;;4977107;28;20427;-91
2023/02/03 12:51:48;;;;;;;11.97;3.00;;;8.80;1.00;;;;;;4991729;28;20845;-89
2023/02/03 12:54:23;;;;;;;22.07;3.47;;;8.70;1.00;;;;;;4991105;28;20420;-89
2023/02/03 12:56:54;;;;;;;18.17;3.87;;;8.70;99.90;;;;;;4991435;28;20431;-86
2023/02/03 12:59:24;;;;;;;17.43;2.70;;;8.50;99.90;;;;;;4987886;28;20536;-83
2023/02/03 13:02:23;;;;;;;17.80;3.40;;;8.60;99.90;;;;;;4973350;28;20430;-86
2023/02/03 13:04:59;;;;;;;13.87;2.37;;;8.70;99.90;;;;;;4953671;29;20417;-82
2023/02/03 13:07:35;;;;;;;18.57;2.47;;;8.60;99.90;;;;;;4955480;28;20421;-83
2023/02/03 13:10:28;;;;;;;9.87;2.27;;;8.70;1.00;;;;;;4953660;28;20510;-83
2023/02/03 13:12:56;;;;;;;15.60;3.50;;;8.60;99.90;;;;;;4953912;29;20448;-85
2023/02/03 13:15:28;;;;;;;12.17;2.97;;;8.50;99.90;;;;;;4955254;28;20405;-85
2023/02/03 13:18:00;;;;;;;14.03;2.30;;;8.50;99.90;;;;;;4977966;28;20462;-83
2023/02/03 13:20:30;;;;;;;11.27;3.17;;;8.50;99.90;;;;;;4959149;28;20439;-91
2023/02/03 13:22:58;;;;;;;14.13;2.77;;;8.50;99.90;;;;;;4954171;28;20496;-86
2023/02/03 13:26:11;;;;;;;9.90;2.10;;;8.40;1.00;;;;;;4953890;28;20430;-85
2023/02/03 13:28:57;;;;;;;17.57;3.77;;;8.40;99.90;;;;;;4942252;28;20510;-83
2023/02/03 13:31:32;;;;;;;10.10;3.10;;;8.40;99.90;;;;;;4954669;28;20467;-83
2023/02/03 13:33:57;;;;;;;19.03;5.00;;;8.40;1.00;;;;;;4954436;28;20427;-84
2023/02/03 13:36:48;;;;;;;21.77;2.73;;;8.40;99.90;;;;;;4954534;28;20792;-83